createdAt,value
2018-11-20T00:00:09.618Z,90
2018-11-20T00:01:11.643Z,90
2018-11-20T00:02:13.650Z,90
2018-11-20T00:03:15.670Z,91
2018-11-20T00:04:17.968Z,91
2018-11-20T00:05:20.056Z,90
2018-11-20T00:06:22.476Z,90
2018-11-20T00:07:24.488Z,90
2018-11-20T00:08:26.511Z,90
2018-11-20T00:09:28.520Z,90
2018-11-20T00:10:30.540Z,90
2018-11-20T00:11:32.550Z,90
2018-11-20T00:12:34.560Z,90
2018-11-20T00:13:36.583Z,91
2018-11-20T00:14:38.879Z,91
2018-11-20T00:15:40.901Z,90
2018-11-20T00:16:42.923Z,91
2018-11-20T00:17:44.941Z,91
2018-11-20T00:18:46.947Z,91
2018-11-20T00:19:48.962Z,91
2018-11-20T00:20:51.278Z,91
2018-11-20T00:21:53.289Z,91
2018-11-20T00:22:55.314Z,90
2018-11-20T00:23:57.320Z,91
2018-11-20T00:24:59.328Z,91
2018-11-20T00:26:01.352Z,91
2018-11-20T00:27:03.367Z,91
2018-11-20T00:28:05.373Z,91
2018-11-20T00:29:07.387Z,91
2018-11-20T00:30:09.679Z,91
2018-11-20T00:31:11.702Z,91
2018-11-20T00:32:13.720Z,91
2018-11-20T00:33:15.739Z,91
2018-11-20T00:34:17.744Z,91
2018-11-20T00:35:19.771Z,91
2018-11-20T00:36:21.780Z,91
2018-11-20T00:37:23.798Z,91
2018-11-20T00:38:25.820Z,91
2018-11-20T00:39:27.825Z,91
2018-11-20T00:40:30.137Z,92
2018-11-20T00:41:32.149Z,91
2018-11-20T00:42:34.206Z,91
2018-11-20T00:43:36.178Z,91
2018-11-20T00:44:38.198Z,91
2018-11-20T00:45:40.606Z,91
2018-11-20T00:46:42.616Z,91
2018-11-20T00:47:44.633Z,91
2018-11-20T00:48:46.656Z,91
2018-11-20T00:49:48.675Z,91
2018-11-20T00:50:50.702Z,91
2018-11-20T00:51:52.990Z,91
2018-11-20T00:52:55.397Z,91
2018-11-20T00:53:57.420Z,91
2018-11-20T00:54:59.423Z,91
2018-11-20T00:56:01.762Z,91
2018-11-20T00:57:03.768Z,91
2018-11-20T00:58:05.776Z,90
2018-11-20T00:59:07.805Z,90
2018-11-20T01:00:09.815Z,90
2018-11-20T01:01:11.824Z,90
2018-11-20T01:02:13.834Z,90
2018-11-20T01:03:15.840Z,90
2018-11-20T01:04:17.867Z,90
2018-11-20T01:05:20.311Z,90
2018-11-20T01:06:22.920Z,90
2018-11-20T01:07:24.923Z,89
2018-11-20T01:08:26.946Z,89
2018-11-20T01:09:28.953Z,89
2018-11-20T01:10:30.970Z,89
2018-11-20T01:11:33.376Z,89
2018-11-20T01:12:35.380Z,89
2018-11-20T01:13:37.397Z,89
2018-11-20T01:14:39.407Z,88
2018-11-20T01:15:41.717Z,88
2018-11-20T01:16:43.722Z,89
2018-11-20T01:17:45.743Z,88
2018-11-20T01:18:48.073Z,88
2018-11-20T01:19:50.750Z,88
2018-11-20T01:20:52.769Z,88
2018-11-20T01:21:54.778Z,87
2018-11-20T01:22:56.787Z,86
2018-11-20T01:23:59.127Z,86
2018-11-20T01:25:01.151Z,86
2018-11-20T01:26:03.159Z,86
2018-11-20T01:27:05.177Z,86
2018-11-20T01:28:07.183Z,86
2018-11-20T01:29:09.208Z,86
2018-11-20T01:30:11.214Z,85
2018-11-20T01:31:13.222Z,85
2018-11-20T01:32:15.248Z,84
2018-11-20T01:33:17.550Z,84
2018-11-20T01:34:19.560Z,83
2018-11-20T01:35:21.575Z,83
2018-11-20T01:36:23.584Z,83
2018-11-20T01:37:25.606Z,83
2018-11-20T01:38:27.625Z,83
2018-11-20T01:39:29.647Z,82
2018-11-20T01:40:31.649Z,82
2018-11-20T01:41:33.730Z,82
2018-11-20T01:42:36.076Z,82
2018-11-20T01:43:38.093Z,82
2018-11-20T01:44:40.115Z,82
2018-11-20T01:45:42.120Z,82
2018-11-20T01:46:44.143Z,82
2018-11-20T01:47:46.149Z,82
2018-11-20T01:48:48.176Z,82
2018-11-20T01:49:50.179Z,82
2018-11-20T01:50:52.582Z,82
2018-11-20T01:51:54.601Z,82
2018-11-20T01:52:56.610Z,82
2018-11-20T01:53:58.635Z,82
2018-11-20T01:55:00.646Z,82
2018-11-20T01:56:03.326Z,82
2018-11-20T01:57:05.616Z,82
2018-11-20T01:58:07.639Z,82
2018-11-20T01:59:09.648Z,82
2018-11-20T02:00:11.665Z,82
2018-11-20T02:01:14.072Z,82
2018-11-20T02:02:16.077Z,81
2018-11-20T02:03:18.475Z,82
2018-11-20T02:04:20.483Z,82
2018-11-20T02:05:22.507Z,81
2018-11-20T02:06:24.512Z,82
2018-11-20T02:07:26.521Z,81
2018-11-20T02:08:28.533Z,81
2018-11-20T02:09:30.543Z,81
2018-11-20T02:10:32.564Z,81
2018-11-20T02:11:34.972Z,81
2018-11-20T02:12:37.384Z,81
2018-11-20T02:13:39.390Z,81
2018-11-20T02:14:41.418Z,81
2018-11-20T02:15:43.717Z,81
2018-11-20T02:16:46.011Z,81
2018-11-20T02:17:48.047Z,81
2018-11-20T02:18:50.037Z,81
2018-11-20T02:19:52.061Z,81
2018-11-20T02:20:54.354Z,80
2018-11-20T02:21:56.374Z,80
2018-11-20T02:22:58.660Z,80
2018-11-20T02:24:01.066Z,81
2018-11-20T02:25:03.365Z,81
2018-11-20T02:26:05.378Z,81
2018-11-20T02:27:07.400Z,81
2018-11-20T02:28:09.409Z,81
2018-11-20T02:29:11.415Z,81
2018-11-20T02:30:13.427Z,81
2018-11-20T02:31:15.746Z,81
2018-11-20T02:32:17.746Z,81
2018-11-20T02:33:19.761Z,81
2018-11-20T02:34:21.781Z,81
2018-11-20T02:35:23.785Z,81
2018-11-20T02:36:25.801Z,81
2018-11-20T02:37:27.826Z,81
2018-11-20T02:38:29.826Z,81
2018-11-20T02:39:31.848Z,81
2018-11-20T02:40:33.869Z,81
2018-11-20T02:41:35.880Z,81
2018-11-20T02:42:37.900Z,82
2018-11-20T02:43:40.209Z,82
2018-11-20T02:44:42.526Z,82
2018-11-20T02:45:44.531Z,82
2018-11-20T02:46:46.945Z,82
2018-11-20T02:47:48.949Z,82
2018-11-20T02:48:51.355Z,82
2018-11-20T02:49:53.411Z,82
2018-11-20T02:50:55.560Z,82
2018-11-20T02:51:57.583Z,82
2018-11-20T02:52:59.593Z,82
2018-11-20T02:54:01.611Z,82
2018-11-20T02:55:03.616Z,82
2018-11-20T02:56:05.641Z,82
2018-11-20T02:57:07.652Z,82
2018-11-20T02:58:09.662Z,81
2018-11-20T02:59:11.681Z,81
2018-11-20T03:00:13.683Z,81
2018-11-20T03:01:16.089Z,81
2018-11-20T03:02:18.108Z,82
2018-11-20T03:03:20.513Z,82
2018-11-20T03:04:22.511Z,82
2018-11-20T03:05:24.533Z,82
2018-11-20T03:06:26.547Z,82
2018-11-20T03:07:28.932Z,82
2018-11-20T03:08:31.235Z,82
2018-11-20T03:09:33.525Z,82
2018-11-20T03:10:35.531Z,82
2018-11-20T03:11:37.554Z,82
2018-11-20T03:12:39.563Z,82
2018-11-20T03:13:41.574Z,82
2018-11-20T03:14:43.581Z,82
2018-11-20T03:15:45.594Z,82
2018-11-20T03:16:48.182Z,83
2018-11-20T03:17:50.199Z,83
2018-11-20T03:18:52.801Z,82
2018-11-20T03:19:54.824Z,82
2018-11-20T03:20:56.825Z,82
2018-11-20T03:21:58.841Z,82
2018-11-20T03:23:00.855Z,82
2018-11-20T03:24:02.870Z,82
2018-11-20T03:25:05.177Z,82
2018-11-20T03:26:07.187Z,82
2018-11-20T03:27:09.741Z,82
2018-11-20T03:28:11.974Z,82
2018-11-20T03:29:13.997Z,82
2018-11-20T03:30:16.283Z,82
2018-11-20T03:31:18.681Z,82
2018-11-20T03:32:20.697Z,82
2018-11-20T03:33:22.702Z,81
2018-11-20T03:34:24.718Z,81
2018-11-20T03:35:26.738Z,81
2018-11-20T03:36:28.759Z,81
2018-11-20T03:37:31.044Z,82
2018-11-20T03:38:33.062Z,82
2018-11-20T03:39:35.075Z,82
2018-11-20T03:40:37.083Z,82
2018-11-20T03:41:39.109Z,83
2018-11-20T03:42:41.520Z,83
2018-11-20T03:43:43.907Z,82
2018-11-20T03:44:45.930Z,82
2018-11-20T03:45:47.938Z,82
2018-11-20T03:46:50.254Z,83
2018-11-20T03:47:52.339Z,83
2018-11-20T03:48:54.724Z,83
2018-11-20T03:49:56.745Z,83
2018-11-20T03:50:58.760Z,82
2018-11-20T03:52:00.773Z,83
2018-11-20T03:53:02.778Z,83
2018-11-20T03:54:04.803Z,82
2018-11-20T03:55:06.810Z,82
2018-11-20T03:56:09.210Z,82
2018-11-20T03:57:11.216Z,82
2018-11-20T03:58:13.627Z,82
2018-11-20T03:59:15.639Z,82
2018-11-20T04:00:17.940Z,82
2018-11-20T04:01:20.363Z,82
2018-11-20T04:02:22.386Z,82
2018-11-20T04:03:24.393Z,82
2018-11-20T04:04:26.399Z,82
2018-11-20T04:05:28.414Z,82
2018-11-20T04:06:30.718Z,82
2018-11-20T04:07:32.735Z,82
2018-11-20T04:08:34.753Z,82
2018-11-20T04:09:36.771Z,82
2018-11-20T04:10:38.771Z,82
2018-11-20T04:11:40.788Z,82
2018-11-20T04:12:42.802Z,82
2018-11-20T04:13:45.093Z,82
2018-11-20T04:14:47.118Z,82
2018-11-20T04:15:49.128Z,82
2018-11-20T04:16:51.133Z,82
2018-11-20T04:17:53.213Z,82
2018-11-20T04:18:55.561Z,82
2018-11-20T04:19:57.574Z,82
2018-11-20T04:20:59.875Z,82
2018-11-20T04:22:02.551Z,83
2018-11-20T04:23:04.571Z,83
2018-11-20T04:24:06.583Z,83
2018-11-20T04:25:08.600Z,83
2018-11-20T04:26:10.602Z,83
2018-11-20T04:27:12.625Z,83
2018-11-20T04:28:15.303Z,84
2018-11-20T04:29:17.320Z,83
2018-11-20T04:30:19.622Z,84
2018-11-20T04:31:21.622Z,84
2018-11-20T04:32:24.030Z,84
2018-11-20T04:33:26.320Z,84
2018-11-20T04:34:28.345Z,84
2018-11-20T04:35:30.736Z,84
2018-11-20T04:36:33.128Z,84
2018-11-20T04:37:35.132Z,84
2018-11-20T04:38:37.726Z,84
2018-11-20T04:39:39.726Z,84
2018-11-20T04:40:41.794Z,85
2018-11-20T04:41:44.113Z,85
2018-11-20T04:42:46.126Z,84
2018-11-20T04:43:48.127Z,85
2018-11-20T04:44:50.147Z,84
2018-11-20T04:45:52.449Z,84
2018-11-20T04:46:54.742Z,84
2018-11-20T04:47:56.761Z,85
2018-11-20T04:48:58.767Z,85
2018-11-20T04:50:02.024Z,85
2018-11-20T04:51:03.954Z,85
2018-11-20T04:52:05.961Z,84
2018-11-20T04:53:08.265Z,84
2018-11-20T04:54:10.282Z,84
2018-11-20T04:55:12.288Z,84
2018-11-20T04:56:14.304Z,84
2018-11-20T04:57:16.316Z,84
2018-11-20T04:58:18.329Z,84
2018-11-20T04:59:20.328Z,85
2018-11-20T05:00:22.645Z,84
2018-11-20T05:01:24.652Z,84
2018-11-20T05:02:26.665Z,84
2018-11-20T05:03:28.686Z,84
2018-11-20T05:04:30.685Z,84
2018-11-20T05:05:32.703Z,84
2018-11-20T05:06:34.731Z,84
2018-11-20T05:07:36.731Z,84
2018-11-20T05:08:38.729Z,84
2018-11-20T05:09:40.750Z,84
2018-11-20T05:10:42.763Z,84
2018-11-20T05:11:44.772Z,84
2018-11-20T05:12:46.793Z,84
2018-11-20T05:13:49.193Z,84
2018-11-20T05:14:51.501Z,84
2018-11-20T05:15:53.506Z,84
2018-11-20T05:16:55.530Z,84
2018-11-20T05:17:57.535Z,84
2018-11-20T05:18:59.549Z,84
2018-11-20T05:20:01.563Z,84
2018-11-20T05:21:03.850Z,84
2018-11-20T05:22:06.157Z,85
2018-11-20T05:23:08.173Z,84
2018-11-20T05:24:10.175Z,84
2018-11-20T05:25:12.195Z,84
2018-11-20T05:26:14.214Z,84
2018-11-20T05:27:16.225Z,84
2018-11-20T05:28:18.242Z,84
2018-11-20T05:29:20.245Z,85
2018-11-20T05:30:22.255Z,85
2018-11-20T05:31:24.265Z,84
2018-11-20T05:32:26.282Z,84
2018-11-20T05:33:28.282Z,84
2018-11-20T05:34:30.297Z,83
2018-11-20T05:35:32.308Z,83
2018-11-20T05:36:34.316Z,84
2018-11-20T05:37:36.339Z,83
2018-11-20T05:38:38.345Z,83
2018-11-20T05:39:40.363Z,83
2018-11-20T05:40:42.365Z,83
2018-11-20T05:41:44.386Z,83
2018-11-20T05:42:46.781Z,83
2018-11-20T05:43:49.077Z,83
2018-11-20T05:44:51.094Z,83
2018-11-20T05:45:53.666Z,83
2018-11-20T05:46:55.785Z,83
2018-11-20T05:47:57.700Z,83
2018-11-20T05:48:59.717Z,83
2018-11-20T05:50:02.389Z,83
2018-11-20T05:51:04.404Z,83
2018-11-20T05:52:06.416Z,83
2018-11-20T05:53:08.433Z,83
2018-11-20T05:54:10.432Z,83
2018-11-20T05:55:12.454Z,83
2018-11-20T05:56:14.470Z,83
2018-11-20T05:57:16.475Z,83
2018-11-20T05:58:19.565Z,83
2018-11-20T05:59:21.581Z,83
2018-11-20T06:00:23.595Z,83
2018-11-20T06:01:25.609Z,83
2018-11-20T06:02:27.616Z,83
2018-11-20T06:03:29.635Z,83
2018-11-20T06:04:31.631Z,83
2018-11-20T06:05:33.651Z,83
2018-11-20T06:06:35.652Z,83
2018-11-20T06:07:37.672Z,83
2018-11-20T06:08:39.682Z,83
2018-11-20T06:09:41.968Z,83
2018-11-20T06:10:44.381Z,82
2018-11-20T06:11:46.384Z,82
2018-11-20T06:12:48.778Z,82
2018-11-20T06:13:50.690Z,82
2018-11-20T06:14:52.714Z,82
2018-11-20T06:15:54.720Z,82
2018-11-20T06:16:56.730Z,82
2018-11-20T06:17:58.745Z,82
2018-11-20T06:19:00.803Z,82
2018-11-20T06:20:02.764Z,82
2018-11-20T06:21:04.782Z,82
2018-11-20T06:22:06.800Z,82
2018-11-20T06:23:08.801Z,82
2018-11-20T06:24:10.818Z,82
2018-11-20T06:25:12.827Z,82
2018-11-20T06:26:15.514Z,82
2018-11-20T06:27:17.821Z,82
2018-11-20T06:28:19.830Z,82
2018-11-20T06:29:21.902Z,82
2018-11-20T06:30:24.242Z,82
2018-11-20T06:31:26.264Z,83
2018-11-20T06:32:28.559Z,83
2018-11-20T06:33:30.572Z,83
2018-11-20T06:34:32.631Z,83
2018-11-20T06:35:35.617Z,83
2018-11-20T06:36:38.200Z,83
2018-11-20T06:37:40.500Z,83
2018-11-20T06:38:42.522Z,84
2018-11-20T06:39:44.522Z,84
2018-11-20T06:40:46.539Z,84
2018-11-20T06:41:48.557Z,84
2018-11-20T06:42:50.561Z,84
2018-11-20T06:43:52.586Z,84
2018-11-20T06:44:54.593Z,84
2018-11-20T06:45:56.609Z,85
2018-11-20T06:46:58.620Z,85
2018-11-20T06:48:00.637Z,85
2018-11-20T06:49:02.645Z,85
2018-11-20T06:50:04.656Z,85
2018-11-20T06:51:07.064Z,85
2018-11-20T06:52:09.065Z,85
2018-11-20T06:53:11.292Z,85
2018-11-20T06:54:13.100Z,85
2018-11-20T06:55:15.122Z,86
2018-11-20T06:56:17.126Z,85
2018-11-20T06:57:19.217Z,85
2018-11-20T06:58:21.584Z,85
2018-11-20T06:59:23.588Z,85
2018-11-20T07:00:25.896Z,85
2018-11-20T07:01:28.401Z,85
2018-11-20T07:02:30.348Z,85
2018-11-20T07:03:32.371Z,85
2018-11-20T07:04:34.380Z,85
2018-11-20T07:05:36.391Z,85
2018-11-20T07:06:38.398Z,84
2018-11-20T07:07:41.195Z,84
2018-11-20T07:08:43.090Z,84
2018-11-20T07:09:45.427Z,84
2018-11-20T07:10:47.434Z,84
2018-11-20T07:11:49.740Z,83
2018-11-20T07:12:51.741Z,83
2018-11-20T07:13:53.758Z,83
2018-11-20T07:14:55.777Z,83
2018-11-20T07:15:58.064Z,83
2018-11-20T07:16:59.804Z,82
2018-11-20T07:18:01.814Z,82
2018-11-20T07:19:03.834Z,83
2018-11-20T07:20:06.118Z,83
2018-11-20T07:21:08.738Z,82
2018-11-20T07:22:11.029Z,82
2018-11-20T07:23:13.328Z,82
2018-11-20T07:24:15.391Z,82
2018-11-20T07:25:17.353Z,82
2018-11-20T07:26:19.755Z,82
2018-11-20T07:27:21.772Z,82
2018-11-20T07:28:23.792Z,82
2018-11-20T07:29:25.847Z,81
2018-11-20T07:30:28.180Z,82
2018-11-20T07:31:30.242Z,81
2018-11-20T07:32:32.608Z,81
2018-11-20T07:33:34.627Z,81
2018-11-20T07:34:36.642Z,81
2018-11-20T07:35:38.640Z,81
2018-11-20T07:36:41.241Z,81
2018-11-20T07:37:43.639Z,81
2018-11-20T07:38:45.648Z,81
2018-11-20T07:39:47.662Z,81
2018-11-20T07:40:49.666Z,81
2018-11-20T07:41:51.684Z,81
2018-11-20T07:42:53.703Z,81
2018-11-20T07:43:55.987Z,81
2018-11-20T07:44:57.727Z,81
2018-11-20T07:45:59.749Z,81
2018-11-20T07:47:01.757Z,81
2018-11-20T07:48:03.768Z,81
2018-11-20T07:49:05.786Z,81
2018-11-20T07:50:07.791Z,81
2018-11-20T07:51:10.192Z,81
2018-11-20T07:52:12.203Z,81
2018-11-20T07:53:14.231Z,81
2018-11-20T07:54:16.232Z,81
2018-11-20T07:55:18.651Z,81
2018-11-20T07:56:21.747Z,81
2018-11-20T07:57:23.697Z,81
2018-11-20T07:58:25.723Z,81
2018-11-20T07:59:27.732Z,81
2018-11-20T08:00:29.736Z,81
2018-11-20T08:01:31.744Z,81
2018-11-20T08:02:33.766Z,81
2018-11-20T08:03:36.061Z,81
2018-11-20T08:04:38.076Z,81
2018-11-20T08:05:40.097Z,81
2018-11-20T08:06:42.100Z,81
2018-11-20T08:07:44.133Z,81
2018-11-20T08:08:46.148Z,81
2018-11-20T08:09:48.150Z,81
2018-11-20T08:10:50.169Z,81
2018-11-20T08:11:52.188Z,81
2018-11-20T08:12:54.585Z,81
2018-11-20T08:13:56.609Z,81
2018-11-20T08:14:58.620Z,81
2018-11-20T08:16:01.804Z,81
2018-11-20T08:17:03.681Z,80
2018-11-20T08:18:05.708Z,81
2018-11-20T08:19:07.709Z,80
2018-11-20T08:20:09.728Z,80
2018-11-20T08:21:11.742Z,81
2018-11-20T08:22:14.039Z,81
2018-11-20T08:23:16.324Z,81
2018-11-20T08:24:18.342Z,81
2018-11-20T08:25:20.917Z,81
2018-11-20T08:26:23.004Z,81
2018-11-20T08:27:25.134Z,81
2018-11-20T08:28:27.153Z,81
2018-11-20T08:29:29.170Z,81
2018-11-20T08:30:31.180Z,81
2018-11-20T08:31:33.206Z,81
2018-11-20T08:32:35.213Z,81
2018-11-20T08:33:37.586Z,81
2018-11-20T08:34:39.511Z,81
2018-11-20T08:35:41.539Z,81
2018-11-20T08:36:43.543Z,81
2018-11-20T08:37:45.559Z,81
2018-11-20T08:38:47.574Z,81
2018-11-20T08:39:49.581Z,81
2018-11-20T08:40:51.604Z,81
2018-11-20T08:41:53.908Z,81
2018-11-20T08:42:56.207Z,81
2018-11-20T08:43:58.513Z,81
2018-11-20T08:45:00.538Z,81
2018-11-20T08:46:02.552Z,81
2018-11-20T08:47:04.568Z,81
2018-11-20T08:48:06.873Z,81
2018-11-20T08:49:08.869Z,81
2018-11-20T08:50:11.172Z,81
2018-11-20T08:51:13.193Z,81
2018-11-20T08:52:15.196Z,81
2018-11-20T08:53:17.218Z,81
2018-11-20T08:54:19.231Z,81
2018-11-20T08:55:21.241Z,81
2018-11-20T08:56:23.264Z,81
2018-11-20T08:57:25.560Z,81
2018-11-20T08:58:28.530Z,81
2018-11-20T08:59:30.918Z,81
2018-11-20T09:00:32.945Z,81
2018-11-20T09:01:35.245Z,81
2018-11-20T09:02:37.573Z,81
2018-11-20T09:03:40.118Z,81
2018-11-20T09:04:42.118Z,81
2018-11-20T09:05:44.518Z,81
2018-11-20T09:06:46.535Z,82
2018-11-20T09:07:48.553Z,82
2018-11-20T09:08:50.938Z,81
2018-11-20T09:09:52.994Z,81
2018-11-20T09:10:55.359Z,81
2018-11-20T09:11:57.367Z,81
2018-11-20T09:12:59.390Z,81
2018-11-20T09:14:01.403Z,81
2018-11-20T09:15:03.702Z,81
2018-11-20T09:16:05.726Z,81
2018-11-20T09:17:07.736Z,81
2018-11-20T09:18:10.130Z,81
2018-11-20T09:19:12.144Z,81
2018-11-20T09:20:14.262Z,81
2018-11-20T09:21:16.282Z,81
2018-11-20T09:22:18.573Z,81
2018-11-20T09:23:20.593Z,82
2018-11-20T09:24:22.597Z,81
2018-11-20T09:25:25.309Z,81
2018-11-20T09:26:27.702Z,82
2018-11-20T09:27:29.715Z,82
2018-11-20T09:28:31.735Z,81
2018-11-20T09:29:33.740Z,81
2018-11-20T09:30:35.756Z,81
2018-11-20T09:31:37.769Z,82
2018-11-20T09:32:39.798Z,82
2018-11-20T09:33:42.192Z,82
2018-11-20T09:34:44.274Z,82
2018-11-20T09:35:46.904Z,82
2018-11-20T09:36:49.065Z,82
2018-11-20T09:37:51.083Z,82
2018-11-20T09:38:53.386Z,82
2018-11-20T09:39:55.408Z,82
2018-11-20T09:40:57.430Z,82
2018-11-20T09:41:59.716Z,82
2018-11-20T09:43:02.030Z,82
2018-11-20T09:44:04.047Z,82
2018-11-20T09:45:06.055Z,82
2018-11-20T09:46:08.081Z,82
2018-11-20T09:47:10.209Z,82
2018-11-20T09:48:12.912Z,82
2018-11-20T09:49:14.939Z,82
2018-11-20T09:50:16.947Z,82
2018-11-20T09:51:19.342Z,82
2018-11-20T09:52:21.646Z,82
2018-11-20T09:53:23.653Z,82
2018-11-20T09:54:25.676Z,82
2018-11-20T09:55:27.698Z,82
2018-11-20T09:56:30.107Z,82
2018-11-20T09:57:32.112Z,82
2018-11-20T09:58:34.436Z,82
2018-11-20T09:59:36.849Z,82
2018-11-20T10:00:38.793Z,82
2018-11-20T10:01:40.816Z,82
2018-11-20T10:02:43.106Z,82
2018-11-20T10:03:45.622Z,82
2018-11-20T10:04:47.924Z,82
2018-11-20T10:05:49.950Z,82
2018-11-20T10:06:51.956Z,82
2018-11-20T10:07:54.264Z,82
2018-11-20T10:08:56.738Z,82
2018-11-20T10:09:58.709Z,82
2018-11-20T10:11:00.735Z,82
2018-11-20T10:12:03.320Z,82
2018-11-20T10:13:05.329Z,82
2018-11-20T10:14:07.425Z,83
2018-11-20T10:15:09.491Z,82
2018-11-20T10:16:11.650Z,82
2018-11-20T10:17:13.664Z,83
2018-11-20T10:18:16.068Z,82
2018-11-20T10:19:18.074Z,82
2018-11-20T10:20:20.092Z,83
2018-11-20T10:21:22.575Z,83
2018-11-20T10:22:24.978Z,82
2018-11-20T10:23:27.040Z,82
2018-11-20T10:24:29.371Z,82
2018-11-20T10:25:31.880Z,82
2018-11-20T10:26:34.753Z,82
2018-11-20T10:27:36.758Z,82
2018-11-20T10:28:39.050Z,82
2018-11-20T10:29:41.064Z,82
2018-11-20T10:30:43.085Z,82
2018-11-20T10:31:45.086Z,82
2018-11-20T10:32:47.105Z,82
2018-11-20T10:33:49.119Z,82
2018-11-20T10:34:51.509Z,82
2018-11-20T10:35:53.463Z,83
2018-11-20T10:36:55.473Z,82
2018-11-20T10:37:57.781Z,83
2018-11-20T10:38:59.786Z,83
2018-11-20T10:40:01.828Z,83
2018-11-20T10:41:03.829Z,83
2018-11-20T10:42:05.839Z,83
2018-11-20T10:43:07.859Z,83
2018-11-20T10:44:09.861Z,83
2018-11-20T10:45:11.888Z,83
2018-11-20T10:46:14.062Z,83
2018-11-20T10:47:15.924Z,83
2018-11-20T10:48:17.926Z,83
2018-11-20T10:49:20.000Z,83
2018-11-20T10:50:22.012Z,84
2018-11-20T10:51:24.017Z,84
2018-11-20T10:52:26.630Z,84
2018-11-20T10:53:28.752Z,84
2018-11-20T10:54:31.052Z,85
2018-11-20T10:55:33.054Z,85
2018-11-20T10:56:35.077Z,85
2018-11-20T10:57:37.091Z,85
2018-11-20T10:58:39.109Z,86
2018-11-20T10:59:41.937Z,86
2018-11-20T11:00:44.260Z,87
2018-11-20T11:01:46.272Z,87
2018-11-20T11:02:48.276Z,87
2018-11-20T11:03:50.359Z,88
2018-11-20T11:04:52.504Z,87
2018-11-20T11:05:54.397Z,87
2018-11-20T11:06:57.565Z,88
2018-11-20T11:08:00.710Z,88
2018-11-20T11:09:02.882Z,89
2018-11-20T11:10:04.890Z,89
2018-11-20T11:11:06.909Z,89
2018-11-20T11:12:09.385Z,89
2018-11-20T11:13:11.775Z,89
2018-11-20T11:14:13.786Z,90
2018-11-20T11:15:15.826Z,90
2018-11-20T11:16:17.868Z,90
2018-11-20T11:17:19.869Z,90
2018-11-20T11:18:21.962Z,90
2018-11-20T11:19:23.914Z,90
2018-11-20T11:20:25.978Z,90
2018-11-20T11:21:28.351Z,90
2018-11-20T11:22:31.130Z,91
2018-11-20T11:23:33.143Z,91
2018-11-20T11:24:35.151Z,91
2018-11-20T11:25:37.173Z,91
2018-11-20T11:26:39.182Z,91
2018-11-20T11:27:41.475Z,91
2018-11-20T11:28:43.498Z,91
2018-11-20T11:29:45.798Z,91
2018-11-20T11:30:47.804Z,91
2018-11-20T11:31:49.809Z,91
2018-11-20T11:32:51.826Z,91
2018-11-20T11:33:53.836Z,91
2018-11-20T11:34:55.842Z,91
2018-11-20T11:35:57.847Z,91
2018-11-20T11:37:00.282Z,92
2018-11-20T11:38:02.308Z,91
2018-11-20T11:39:04.401Z,92
2018-11-20T11:40:06.770Z,92
2018-11-20T11:41:08.905Z,91
2018-11-20T11:42:10.930Z,91
2018-11-20T11:43:12.941Z,92
2018-11-20T11:44:14.957Z,91
2018-11-20T11:45:16.960Z,91
2018-11-20T11:46:18.980Z,90
2018-11-20T11:47:20.987Z,91
2018-11-20T11:48:23.001Z,90
2018-11-20T11:49:25.303Z,91
2018-11-20T11:50:27.610Z,91
2018-11-20T11:51:30.218Z,91
2018-11-20T11:52:32.235Z,91
2018-11-20T11:53:34.257Z,91
2018-11-20T11:54:36.546Z,90
2018-11-20T11:55:38.571Z,91
2018-11-20T11:56:40.866Z,91
2018-11-20T11:57:42.871Z,90
2018-11-20T11:58:45.181Z,91
2018-11-20T11:59:47.188Z,91
2018-11-20T12:00:49.240Z,91
2018-11-20T12:03:55.608Z,91
2018-11-20T12:04:57.622Z,91
2018-11-20T12:05:59.632Z,92
2018-11-20T12:07:01.653Z,92
2018-11-20T12:08:03.952Z,92
2018-11-20T12:09:06.361Z,93
2018-11-20T12:10:08.380Z,94
2018-11-20T12:11:10.381Z,95
2018-11-20T12:12:12.406Z,95
2018-11-20T12:13:14.702Z,95
2018-11-20T12:14:16.709Z,96
2018-11-20T12:15:18.734Z,97
2018-11-20T12:16:21.417Z,97
2018-11-20T12:17:23.441Z,97
2018-11-20T12:18:25.443Z,97
2018-11-20T12:19:27.859Z,97
2018-11-20T12:20:30.151Z,97
2018-11-20T12:21:32.443Z,97
2018-11-20T12:22:34.459Z,96
2018-11-20T12:23:36.466Z,95
2018-11-20T12:24:39.045Z,95
2018-11-20T12:25:41.061Z,94
2018-11-20T12:26:43.075Z,94
2018-11-20T12:27:45.076Z,94
2018-11-20T12:28:47.100Z,93
2018-11-20T12:29:55.465Z,93
2018-11-20T12:30:56.806Z,93
2018-11-20T12:31:59.216Z,92
2018-11-20T12:33:01.228Z,92
2018-11-20T12:34:03.230Z,92
2018-11-20T12:35:05.254Z,92
2018-11-20T12:36:07.260Z,92
2018-11-20T12:37:09.570Z,92
2018-11-20T12:38:11.585Z,92
2018-11-20T12:39:13.594Z,92
2018-11-20T12:40:16.793Z,92
2018-11-20T12:41:17.629Z,91
2018-11-20T12:42:19.648Z,91
2018-11-20T12:43:21.932Z,91
2018-11-20T12:44:23.952Z,91
2018-11-20T12:45:25.963Z,91
2018-11-20T12:46:27.978Z,91
2018-11-20T12:47:29.997Z,90
2018-11-20T12:48:32.001Z,90
2018-11-20T12:49:34.019Z,90
2018-11-20T12:50:36.031Z,90
2018-11-20T12:51:38.343Z,89
2018-11-20T12:52:41.228Z,89
2018-11-20T12:53:42.647Z,89
2018-11-20T12:54:44.664Z,89
2018-11-20T12:55:46.674Z,89
2018-11-20T12:56:48.701Z,87
2018-11-20T12:57:50.709Z,87
2018-11-20T12:58:54.098Z,87
2018-11-20T12:59:54.725Z,87
2018-11-20T13:00:56.754Z,86
2018-11-20T13:01:59.150Z,87
2018-11-20T13:03:01.453Z,86
2018-11-20T13:04:03.858Z,86
2018-11-20T13:05:05.865Z,86
2018-11-20T13:06:07.889Z,86
2018-11-20T13:07:09.895Z,86
2018-11-20T13:08:11.896Z,85
2018-11-20T13:09:13.917Z,85
2018-11-20T13:10:15.938Z,85
2018-11-20T13:11:17.952Z,85
2018-11-20T13:12:19.973Z,86
2018-11-20T13:13:21.984Z,86
2018-11-20T13:14:23.993Z,85
2018-11-20T13:15:26.290Z,85
2018-11-20T13:16:28.316Z,85
2018-11-20T13:17:30.325Z,85
2018-11-20T13:18:32.340Z,84
2018-11-20T13:19:35.695Z,84
2018-11-20T13:20:36.640Z,84
2018-11-20T13:21:42.857Z,84
2018-11-20T13:22:46.945Z,84
2018-11-20T13:23:49.601Z,84
2018-11-20T13:24:50.966Z,84
2018-11-20T13:25:52.983Z,84
2018-11-20T13:26:55.000Z,84
2018-11-20T13:27:57.014Z,84
2018-11-20T13:28:59.025Z,83
2018-11-20T13:30:01.049Z,84
2018-11-20T13:31:03.441Z,83
2018-11-20T13:32:05.451Z,83
2018-11-20T13:33:08.132Z,84
2018-11-20T13:34:10.463Z,84
2018-11-20T13:35:12.858Z,84
2018-11-20T13:36:14.869Z,84
2018-11-20T13:37:18.170Z,84
2018-11-20T13:38:20.204Z,84
2018-11-20T13:39:22.224Z,84
2018-11-20T13:40:24.241Z,84
2018-11-20T13:41:26.242Z,84
2018-11-20T13:42:28.259Z,84
2018-11-20T13:43:32.337Z,84
2018-11-20T13:44:34.350Z,84
2018-11-20T13:45:36.378Z,84
2018-11-20T13:46:38.388Z,84
2018-11-20T13:47:40.786Z,84
2018-11-20T13:48:42.793Z,83
2018-11-20T13:49:44.822Z,83
2018-11-20T13:50:47.206Z,83
2018-11-20T13:51:49.501Z,83
2018-11-20T13:52:53.389Z,83
2018-11-20T13:53:55.397Z,83
2018-11-20T13:54:57.423Z,83
2018-11-20T13:55:59.430Z,83
2018-11-20T13:57:01.447Z,83
2018-11-20T13:58:03.452Z,83
2018-11-20T13:59:05.477Z,83
2018-11-20T14:00:07.489Z,83
2018-11-20T14:01:09.496Z,83
2018-11-20T14:02:11.803Z,83
2018-11-20T14:03:13.811Z,83
2018-11-20T14:04:15.820Z,83
2018-11-20T14:05:18.212Z,83
2018-11-20T14:06:20.240Z,83
2018-11-20T14:07:22.275Z,83
2018-11-20T14:08:24.667Z,83
2018-11-20T14:09:26.683Z,83
2018-11-20T14:10:29.082Z,83
2018-11-20T14:11:36.357Z,83
2018-11-20T14:12:38.435Z,83
2018-11-20T14:13:40.454Z,83
2018-11-20T14:14:42.458Z,83
2018-11-20T14:15:44.473Z,83
2018-11-20T14:16:46.492Z,83
2018-11-20T14:17:48.795Z,83
2018-11-20T14:18:50.817Z,83
2018-11-20T14:19:53.108Z,83
2018-11-20T14:20:55.501Z,83
2018-11-20T14:21:57.516Z,83
2018-11-20T14:22:59.826Z,83
2018-11-20T14:24:01.831Z,82
2018-11-20T14:25:03.847Z,82
2018-11-20T14:26:06.142Z,82
2018-11-20T14:27:08.542Z,82
2018-11-20T14:28:15.553Z,82
2018-11-20T14:29:17.563Z,82
2018-11-20T14:30:20.154Z,82
2018-11-20T14:31:22.745Z,82
2018-11-20T14:32:24.771Z,82
2018-11-20T14:33:27.064Z,82
2018-11-20T14:34:29.067Z,82
2018-11-20T14:35:31.380Z,82
2018-11-20T14:36:33.384Z,82
2018-11-20T14:37:35.402Z,82
2018-11-20T14:38:37.422Z,82
2018-11-20T14:39:39.441Z,82
2018-11-20T14:40:41.444Z,81
2018-11-20T14:41:43.461Z,81
2018-11-20T14:42:45.470Z,81
2018-11-20T14:43:47.794Z,81
2018-11-20T14:44:49.785Z,82
2018-11-20T14:45:52.088Z,82
2018-11-20T14:46:54.112Z,81
2018-11-20T14:47:56.389Z,81